TimeCDT,TemperatureF,Dew PointF,Humidity,Sea Level PressureIn,VisibilityMPH,Wind Direction,Wind SpeedMPH,Gust SpeedMPH,PrecipitationIn,Events,Conditions,WindDirDegrees,DateUTC
12:15 AM,73.2,70.9,92,29.91,10.0,Calm,Calm,-,N/A,,Clear,0,2013-06-28 05:15:00
12:35 AM,72.0,70.7,96,29.90,7.0,Calm,Calm,-,N/A,,Clear,0,2013-06-28 05:35:00
12:55 AM,72.1,70.9,96,29.91,10.0,Calm,Calm,-,N/A,,Clear,0,2013-06-28 05:55:00
1:15 AM,71.8,70.7,96,29.91,7.0,Calm,Calm,-,N/A,,Clear,0,2013-06-28 06:15:00
1:35 AM,72.9,71.2,95,29.92,10.0,Calm,Calm,-,N/A,,Clear,0,2013-06-28 06:35:00
1:55 AM,73.2,71.2,93,29.91,10.0,Calm,Calm,-,N/A,,Clear,0,2013-06-28 06:55:00
2:15 AM,73.0,71.4,95,29.91,10.0,Calm,Calm,-,N/A,,Clear,0,2013-06-28 07:15:00
2:35 AM,72.7,71.2,95,29.90,7.0,Calm,Calm,-,N/A,,Clear,0,2013-06-28 07:35:00
2:55 AM,71.8,70.9,97,29.89,7.0,Calm,Calm,-,N/A,,Clear,0,2013-06-28 07:55:00
3:15 AM,72.1,71.6,98,29.89,5.0,Calm,Calm,-,N/A,,Clear,0,2013-06-28 08:15:00
3:35 AM,72.7,71.8,97,29.89,10.0,Calm,Calm,-,N/A,,Clear,0,2013-06-28 08:35:00
3:55 AM,73.4,71.6,94,29.89,7.0,Calm,Calm,-,N/A,,Clear,0,2013-06-28 08:55:00
4:15 AM,72.1,71.1,96,29.88,7.0,Calm,Calm,-,N/A,,Clear,0,2013-06-28 09:15:00
4:35 AM,72.0,71.1,97,29.88,7.0,Calm,Calm,-,N/A,,Clear,0,2013-06-28 09:35:00
4:55 AM,72.0,70.9,96,29.88,7.0,Calm,Calm,-,N/A,,Clear,0,2013-06-28 09:55:00
5:15 AM,73.2,71.1,93,29.88,10.0,Calm,Calm,-,N/A,,Clear,0,2013-06-28 10:15:00
5:35 AM,73.0,70.9,93,29.88,7.0,Calm,Calm,-,N/A,,Clear,0,2013-06-28 10:35:00
5:55 AM,72.0,70.7,96,29.89,7.0,Calm,Calm,-,N/A,,Clear,0,2013-06-28 10:55:00
6:15 AM,72.0,70.7,96,29.89,7.0,Calm,Calm,-,N/A,,Clear,0,2013-06-28 11:15:00
6:35 AM,72.9,70.9,93,29.90,7.0,Calm,Calm,-,N/A,,Clear,0,2013-06-28 11:35:00
6:55 AM,74.5,71.1,89,29.90,10.0,Calm,Calm,-,N/A,,Clear,0,2013-06-28 11:55:00
7:55 AM,77.0,71.2,82,29.90,10.0,SW,3.5,-,N/A,,Clear,230,2013-06-28 12:55:00
8:15 AM,78.1,70.7,78,29.90,10.0,Calm,Calm,-,N/A,,Clear,0,2013-06-28 13:15:00
8:35 AM,79.0,70.9,76,29.90,10.0,West,4.6,-,N/A,,Clear,270,2013-06-28 13:35:00
8:55 AM,79.3,71.4,77,29.89,10.0,West,3.5,-,N/A,,Clear,280,2013-06-28 13:55:00
9:15 AM,80.4,72.0,75,29.90,10.0,West,4.6,-,N/A,,Clear,280,2013-06-28 14:15:00
9:35 AM,81.5,71.1,70,29.90,10.0,WNW,6.9,-,N/A,,Clear,300,2013-06-28 14:35:00
9:55 AM,81.7,69.8,67,29.90,10.0,NW,6.9,-,N/A,,Clear,310,2013-06-28 14:55:00
10:15 AM,81.3,69.8,68,29.91,10.0,WNW,5.8,-,N/A,,Clear,290,2013-06-28 15:15:00
10:35 AM,81.0,70.3,70,29.91,10.0,NW,4.6,-,N/A,,Clear,310,2013-06-28 15:35:00
10:55 AM,80.6,70.0,70,29.91,10.0,WNW,6.9,-,N/A,,Clear,300,2013-06-28 15:55:00
11:15 AM,80.4,68.7,67,29.90,10.0,WNW,9.2,-,N/A,,Clear,300,2013-06-28 16:15:00
11:35 AM,80.2,68.4,67,29.88,10.0,West,5.8,-,N/A,,Clear,280,2013-06-28 16:35:00
11:55 AM,80.6,68.2,66,29.87,10.0,WNW,3.5,-,N/A,,Clear,290,2013-06-28 16:55:00
12:15 PM,81.0,68.0,65,29.86,10.0,Calm,Calm,-,N/A,,Clear,0,2013-06-28 17:15:00
12:35 PM,82.0,67.5,61,29.84,10.0,NW,4.6,-,N/A,,Clear,310,2013-06-28 17:35:00
12:55 PM,84.2,67.6,57,29.84,10.0,WSW,4.6,-,N/A,,Clear,250,2013-06-28 17:55:00
1:15 PM,85.1,67.1,55,29.83,10.0,West,4.6,-,N/A,,Clear,280,2013-06-28 18:15:00
1:35 PM,86.0,67.6,54,29.83,10.0,West,4.6,-,N/A,,Clear,270,2013-06-28 18:35:00
1:55 PM,85.5,67.5,55,29.83,10.0,West,4.6,-,N/A,,Scattered Clouds,280,2013-06-28 18:55:00
2:15 PM,84.6,68.2,58,29.82,10.0,North,5.8,-,N/A,,Scattered Clouds,360,2013-06-28 19:15:00
2:35 PM,83.3,69.3,62,29.81,10.0,NNW,4.6,-,N/A,,Scattered Clouds,340,2013-06-28 19:35:00
2:55 PM,84.4,68.9,60,29.80,10.0,NNW,5.8,-,N/A,,Clear,340,2013-06-28 19:55:00
3:15 PM,85.3,68.9,58,29.80,10.0,North,6.9,-,N/A,,Scattered Clouds,350,2013-06-28 20:15:00
3:35 PM,84.0,68.9,60,29.80,10.0,WNW,5.8,-,N/A,,Scattered Clouds,300,2013-06-28 20:35:00
3:55 PM,82.9,67.8,60,29.81,10.0,West,4.6,-,N/A,,Scattered Clouds,260,2013-06-28 20:55:00
4:15 PM,81.7,68.0,63,29.80,10.0,WSW,4.6,-,N/A,,Scattered Clouds,250,2013-06-28 21:15:00
4:35 PM,81.9,68.0,63,29.79,10.0,WSW,6.9,-,N/A,,Scattered Clouds,250,2013-06-28 21:35:00
4:55 PM,81.5,68.0,63,29.79,10.0,WSW,4.6,-,N/A,,Scattered Clouds,250,2013-06-28 21:55:00
5:15 PM,81.1,68.2,65,29.78,10.0,West,3.5,-,N/A,,Scattered Clouds,270,2013-06-28 22:15:00
5:35 PM,80.4,68.0,66,29.78,10.0,West,3.5,-,N/A,,Clear,270,2013-06-28 22:35:00
5:55 PM,81.3,68.9,66,29.78,10.0,West,4.6,-,N/A,,Clear,270,2013-06-28 22:55:00
6:15 PM,80.1,69.1,69,29.77,10.0,West,5.8,-,N/A,,Scattered Clouds,260,2013-06-28 23:15:00
6:35 PM,79.7,69.6,71,29.76,10.0,West,3.5,-,N/A,,Scattered Clouds,270,2013-06-28 23:35:00
6:55 PM,79.0,69.8,73,29.76,10.0,West,3.5,-,N/A,,Scattered Clouds,270,2013-06-28 23:55:00
7:15 PM,78.4,70.2,76,29.77,10.0,Calm,Calm,-,N/A,,Clear,0,2013-06-29 00:15:00
7:35 PM,78.6,70.2,75,29.78,10.0,SW,3.5,-,N/A,,Clear,230,2013-06-29 00:35:00
7:55 PM,78.1,70.5,77,29.78,10.0,Calm,Calm,-,N/A,,Clear,0,2013-06-29 00:55:00
8:15 PM,77.0,70.3,80,29.79,10.0,SW,3.5,-,N/A,,Clear,220,2013-06-29 01:15:00
8:35 PM,75.6,70.3,84,29.78,10.0,Calm,Calm,-,N/A,,Clear,0,2013-06-29 01:35:00
8:55 PM,74.1,70.2,87,29.79,10.0,Calm,Calm,-,N/A,,Clear,0,2013-06-29 01:55:00
9:15 PM,72.9,70.2,91,29.79,10.0,Calm,Calm,-,N/A,,Mostly Cloudy,0,2013-06-29 02:15:00
9:35 PM,72.7,70.7,93,29.80,10.0,Calm,Calm,-,N/A,,Scattered Clouds,0,2013-06-29 02:35:00
9:55 PM,72.9,70.3,92,29.81,10.0,Calm,Calm,-,N/A,,Clear,0,2013-06-29 02:55:00
10:15 PM,73.2,70.7,92,29.81,10.0,Calm,Calm,-,N/A,,Clear,0,2013-06-29 03:15:00
10:35 PM,73.0,70.7,92,29.81,10.0,Calm,Calm,-,N/A,,Clear,0,2013-06-29 03:35:00
10:55 PM,73.0,70.7,92,29.79,10.0,Calm,Calm,-,N/A,,Clear,0,2013-06-29 03:55:00
11:15 PM,72.5,70.7,94,29.79,10.0,Calm,Calm,-,N/A,,Clear,0,2013-06-29 04:15:00
11:35 PM,72.5,70.7,94,29.79,10.0,Calm,Calm,-,N/A,,Clear,0,2013-06-29 04:35:00
11:55 PM,72.3,70.9,95,29.78,10.0,Calm,Calm,-,N/A,,Clear,0,2013-06-29 04:55:00